Main page
METAR-TAF:

METAR-TAF

Airports :

Singapore, Singapore

Paya Lebar Air Base

latitude: 01-22N, longitude: 103-55E, elevation: 18 m

Current weather observation

The report was made 23 minutes ago, at 19:00 UTC
Wind 2 kt from the North/Northeast
Temperature 28°C
Humidity 79%
Pressure 1010 hPa
Visibility: 9000 m
Few clouds at a height of 1800 ft
Broken clouds at a height of 14000 ft

METAR: WSAP 211900Z 03002KT 9000 FEW018 BKN140 28/24 Q1010

Time: 03:23 (19:23 UTC)

Forecast

The report was made 2 hours and 23 minutes ago, at 17:00 UTC
Forecast valid from 21 at 18 UTC to 23 at 00 UTC
Wind 8 kt from the West
Visibility 10 km or more
Few clouds at a height of 1800 ft, Cumulonimbus.
Scattered clouds at a height of 2000 ft
Temporary
from 21 at 23 UTC to 22 at 03 UTC
Visibility: 3000 m
Few clouds at a height of 1200 ft, Cumulonimbus.
Broken clouds at a height of 1500 ft
thunderstorm, rain

TAF: WSAP 211700Z 2118/2300 28008KT 9999 FEW018CB SCT020 TEMPO 2123/2203 3000 TSRA FEW012CB BKN015

Weather observations and forecasts of more than 4000 airports (METAR and TAF reports).

The available stations are represented by yellow and red dots on the map.

Hover mouse over dot to see the name of the station.

Then click to see weather observations and forecasts.

To change the map : click on the green buttons with a black cross to zoom in, on the green button with a dash to zoom out, or on the green arrows for adjacent maps.


METAR-TAF: